Accueil
METAR-TAF:

METAR-TAF

Aéroports :

Futuna, France

Aérodrome de Futuna Pointe Vele

latitude: 14-19S, longitude: 178-07W, altitude: 6 m

METAR: absent

Heure: 08:27 (20:27 UTC)

Prévision

Le bulletin a été fait il y a 3 heures et 27 minutes, à 17:00 UTC
Prévision valable du 22 à 18 UTC au 23 à 18 UTC
Vent 2 kt de direction variable
Visibilité 10 km ou plus
Nuages fragmentés à une hauteur de 1600 ft
Evoluant progressivement
du 22 à 23 UTC au 23 à 01 UTC
Vent 8 kt de est
Temporairement
du 23 à 03 UTC au 23 à 15 UTC
Visibilité: 4000 m
Nuages fragmentés à une hauteur de 1300 ft
Quelques nuages à une hauteur de 1800 ft, Cumulus congestus.
averses de pluie

TAF: NLWF 221700Z 2218/2318 VRB02KT 9999 BKN016 BECMG 2223/2301 10008KT TEMPO 2303/2315 4000 SHRA BKN013 FEW018TCU

Observations et prévisions météorologiques de plus de 4000 aéroports (messages METAR et TAF).

Les stations disponibles sont représentées par des disques jaunes et rouges sur la carte.

Passer la souris dessus pour voir le nom de la station.

Cliquer dessus pour voir les observations et prévisions météorologiques.

Pour changer de carte: cliquez sur les boutons verts avec une croix noire pour zoomer, sur le bouton vert avec un tiret pour effectuer un zoom arrière, ou sur les flèches vertes pour les cartes adjacentes.


METAR-TAF: